Weather at Picton (Prince Edward County Hospital) Heliport

Public forecast

Using degrees Celsius for public forecast. Weather courtesy of forecast.io.

Closest aviation weather report (METAR) to Picton (Prince Edward County Hospital) Heliport

Closest report is CFB Trenton, 17.9 nm (33.2 km) WNW.

2024/07/17 19:00 (retrieved 35 minutes ago)

CYTR 171900Z 20009KT 15SM FEW030 SCT170 26/20 A2980 RMK CU1AC3 DENSITY ALT 2020FT CU MOD SLP088

Closest aviation forecast (TAF) to Picton (Prince Edward County Hospital) Heliport

Closest forecast is CFB Trenton, 17.9 nm (33.2 km) WNW.

2024/07/17 18:41 (retrieved 54 minutes ago)

TAF CYTR 171740Z 1718/1818 26010KT P6SM FEW020 BKN170 FM180300 30005KT P6SM FEW040 FM181500 31010KT P6SM BKN030 RMK NXT FCST BY 180000Z